PWSweather.com
Personal Weather Stations
Station Observations
728536
Kristiansand, FlekkeroyNO 4625

KristiansandFlekkeroyNO 4625

Lat: 58.0860587, Lon: 8.0151742

Elevation: 36

Station Type: Davis Vantage Pro2

http://www.paulen.no

Latest ConditionsUpdated 4:00:00 PM GMT+01:01 Wednesday, Nov 21, 2018
Currently Today's Max Today's Min Today's Average
Temperature 38.3°F3.5°C 39.8°F4.3°C 32.8°F0.4°C 35.9°F2.2°C
Dew Point 35.3°F1.8°C 36.3°F2.4°C 30.7°F-0.7°C 33.6°F0.9°C
Winds 15.0 mph N24.1 kmh N 29.9 mph -48.1 kmh - - 19.6 mph 31.5 kmh
Wind Gusts 19.6 mph31.5 kmh 36.8 mph59.2 kmh - -
Humidity 89% 95% 84% 91%
Pressure 30.47 in1031.8 mb 30.50 in1032.8 mb 30.41 in1029.8 mb -
Precipitation - 0.03 in0.8 mm - -
Hour Temp Dew Point Humidity Winds Wind Gusts Pressure Precip Precip Rate Daily Precip Total
04:00 PM 38.3°F3.5°C 35.3°F1.8°C 89% 15.0 mph N24.1 kmh N 19.6 mph31.5 kmh 30.47 in1031.8 mb - 0.00 in0.0 mm 0.03 in0.8 mm
03:50 PM 38.0°F3.3°C 35.0°F1.7°C 89% 15.0 mph N24.1 kmh N 18.4 mph29.6 kmh 30.47 in1031.8 mb - 0.00 in0.0 mm 0.03 in0.8 mm
03:40 PM 38.2°F3.4°C 35.2°F1.8°C 89% 12.7 mph N20.4 kmh N 17.3 mph27.8 kmh 30.47 in1031.8 mb - 0.00 in0.0 mm 0.03 in0.8 mm
03:30 PM 38.1°F3.4°C 34.9°F1.6°C 88% 15.0 mph N24.1 kmh N 19.6 mph31.5 kmh 30.47 in1031.8 mb - 0.00 in0.0 mm 0.03 in0.8 mm
03:20 PM 38.9°F3.8°C 35.4°F1.9°C 87% 11.5 mph N18.5 kmh N 15.0 mph24.1 kmh 30.48 in1032.2 mb - 0.00 in0.0 mm 0.03 in0.8 mm
03:10 PM 39.1°F3.9°C 35.6°F2.0°C 87% 18.4 mph NE29.6 kmh NE 23.0 mph37.0 kmh 30.48 in1032.2 mb - 0.00 in0.0 mm 0.03 in0.8 mm
03:00 PM 38.7°F3.7°C 35.2°F1.8°C 87% 13.8 mph N22.2 kmh N 21.9 mph35.2 kmh 30.48 in1032.2 mb - 0.00 in0.0 mm 0.03 in0.8 mm
02:50 PM 39.0°F3.9°C 35.5°F1.9°C 87% 17.3 mph N27.8 kmh N 24.2 mph38.9 kmh 30.48 in1032.2 mb - 0.00 in0.0 mm 0.03 in0.8 mm
02:40 PM 39.0°F3.9°C 35.5°F1.9°C 87% 17.3 mph N27.8 kmh N 19.6 mph31.5 kmh 30.48 in1032.2 mb - 0.00 in0.0 mm 0.03 in0.8 mm
02:30 PM 39.3°F4.1°C 35.8°F2.1°C 87% 13.8 mph NNE22.2 kmh NNE 19.6 mph31.5 kmh 30.48 in1032.2 mb - 0.01 in0.3 mm 0.03 in0.8 mm
02:20 PM 39.1°F3.9°C 35.8°F2.1°C 88% 16.1 mph N25.9 kmh N 24.2 mph38.9 kmh 30.48 in1032.2 mb - 0.01 in0.3 mm 0.03 in0.8 mm
02:10 PM 39.2°F4.0°C 35.9°F2.2°C 88% 17.3 mph N27.8 kmh N 24.2 mph38.9 kmh 30.48 in1032.2 mb - 0.01 in0.3 mm 0.03 in0.8 mm
02:00 PM 39.4°F4.1°C 35.8°F2.1°C 87% 15.0 mph N24.1 kmh N 21.9 mph35.2 kmh 30.48 in1032.2 mb - 0.01 in0.3 mm 0.03 in0.8 mm
01:50 PM 39.6°F4.2°C 35.2°F1.8°C 84% 19.6 mph NE31.5 kmh NE 27.6 mph44.4 kmh 30.49 in1032.5 mb - 0.01 in0.3 mm 0.03 in0.8 mm
01:40 PM 39.6°F4.2°C 35.7°F2.1°C 86% 18.4 mph NE29.6 kmh NE 20.7 mph33.3 kmh 30.49 in1032.5 mb - 0.01 in0.3 mm 0.03 in0.8 mm
01:30 PM 39.7°F4.3°C 35.9°F2.2°C 86% 18.4 mph NE29.6 kmh NE 24.2 mph38.9 kmh 30.49 in1032.5 mb - 0.00 in0.0 mm 0.02 in0.5 mm
01:20 PM 39.2°F4.0°C 36.2°F2.3°C 89% 19.6 mph N31.5 kmh N 24.2 mph38.9 kmh 30.48 in1032.2 mb - 0.00 in0.0 mm 0.02 in0.5 mm
01:10 PM 39.0°F3.9°C 36.1°F2.3°C 89% 12.7 mph NNE20.4 kmh NNE 20.7 mph33.3 kmh 30.49 in1032.5 mb - 0.00 in0.0 mm 0.02 in0.5 mm
01:00 PM 39.3°F4.1°C 36.0°F2.2°C 88% 16.1 mph N25.9 kmh N 21.9 mph35.2 kmh 30.49 in1032.5 mb - 0.00 in0.0 mm 0.02 in0.5 mm
12:50 PM 39.4°F4.1°C 35.9°F2.2°C 87% 17.3 mph N27.8 kmh N 23.0 mph37.0 kmh 30.49 in1032.5 mb - 0.00 in0.0 mm 0.02 in0.5 mm
12:40 PM 39.7°F4.3°C 35.6°F2.0°C 85% 23.0 mph NE37.0 kmh NE 29.9 mph48.1 kmh 30.49 in1032.5 mb - 0.00 in0.0 mm 0.02 in0.5 mm
12:30 PM 39.8°F4.3°C 36.0°F2.2°C 86% 15.0 mph NE24.1 kmh NE 24.2 mph38.9 kmh 30.50 in1032.8 mb - 0.00 in0.0 mm 0.02 in0.5 mm
12:20 PM 39.5°F4.2°C 35.7°F2.1°C 86% 19.6 mph E31.5 kmh E 25.3 mph40.7 kmh 30.50 in1032.8 mb - 0.00 in0.0 mm 0.02 in0.5 mm
12:10 PM 39.2°F4.0°C 36.2°F2.3°C 89% 15.0 mph N24.1 kmh N 23.0 mph37.0 kmh 30.50 in1032.8 mb - 0.00 in0.0 mm 0.02 in0.5 mm
12:00 PM 39.3°F4.1°C 36.3°F2.4°C 89% 18.4 mph NE29.6 kmh NE 24.2 mph38.9 kmh 30.50 in1032.8 mb - 0.00 in0.0 mm 0.02 in0.5 mm
11:50 AM 38.7°F3.7°C 36.0°F2.2°C 90% 18.4 mph NE29.6 kmh NE 19.6 mph31.5 kmh 30.50 in1032.8 mb - 0.01 in0.3 mm 0.02 in0.5 mm
11:40 AM 38.6°F3.7°C 35.9°F2.2°C 90% 17.3 mph NE27.8 kmh NE 23.0 mph37.0 kmh 30.50 in1032.8 mb - 0.02 in0.5 mm 0.02 in0.5 mm
11:30 AM 38.7°F3.7°C 36.0°F2.2°C 90% 21.9 mph NE35.2 kmh NE 26.5 mph42.6 kmh 30.50 in1032.8 mb - 0.02 in0.5 mm 0.02 in0.5 mm
11:20 AM 38.4°F3.6°C 35.4°F1.9°C 89% 24.2 mph NNE38.9 kmh NNE 31.1 mph50.1 kmh 30.50 in1032.8 mb - 0.02 in0.5 mm 0.02 in0.5 mm
11:10 AM 38.5°F3.6°C 35.8°F2.1°C 90% 20.7 mph NE33.3 kmh NE 26.5 mph42.6 kmh 30.50 in1032.8 mb - 0.02 in0.5 mm 0.02 in0.5 mm
11:00 AM 38.4°F3.6°C 35.7°F2.1°C 90% 23.0 mph NNE37.0 kmh NNE 29.9 mph48.1 kmh 30.49 in1032.5 mb - 0.02 in0.5 mm 0.02 in0.5 mm
10:50 AM 38.4°F3.6°C 35.4°F1.9°C 89% 20.7 mph N33.3 kmh N 27.6 mph44.4 kmh 30.49 in1032.5 mb - 0.01 in0.3 mm 0.02 in0.5 mm
10:40 AM 38.4°F3.6°C 35.4°F1.9°C 89% 21.9 mph NNE35.2 kmh NNE 33.4 mph53.8 kmh 30.49 in1032.5 mb - 0.00 in0.0 mm 0.01 in0.3 mm
10:30 AM 38.4°F3.6°C 36.0°F2.2°C 91% 18.4 mph NNE29.6 kmh NNE 26.5 mph42.6 kmh 30.48 in1032.2 mb - 0.00 in0.0 mm 0.01 in0.3 mm
10:20 AM 37.9°F3.3°C 35.2°F1.8°C 90% 17.3 mph N27.8 kmh N 20.7 mph33.3 kmh 30.48 in1032.2 mb - 0.00 in0.0 mm 0.01 in0.3 mm
10:10 AM 38.2°F3.4°C 35.5°F1.9°C 90% 13.8 mph NNE22.2 kmh NNE 20.7 mph33.3 kmh 30.48 in1032.2 mb - 0.01 in0.3 mm 0.01 in0.3 mm
10:00 AM 37.8°F3.2°C 35.4°F1.9°C 91% 18.4 mph N29.6 kmh N 28.8 mph46.3 kmh 30.48 in1032.2 mb - 0.01 in0.3 mm 0.01 in0.3 mm
09:50 AM 38.0°F3.3°C 35.3°F1.8°C 90% 20.7 mph N33.3 kmh N 26.5 mph42.6 kmh 30.47 in1031.8 mb - 0.01 in0.3 mm 0.01 in0.3 mm
09:40 AM 37.8°F3.2°C 35.4°F1.9°C 91% 21.9 mph NNE35.2 kmh NNE 29.9 mph48.1 kmh 30.47 in1031.8 mb - 0.01 in0.3 mm 0.01 in0.3 mm
09:30 AM 37.3°F2.9°C 35.2°F1.8°C 92% 18.4 mph N29.6 kmh N 19.6 mph31.5 kmh 30.47 in1031.8 mb - 0.01 in0.3 mm 0.01 in0.3 mm
09:20 AM 37.2°F2.9°C 35.7°F2.1°C 94% 18.4 mph N29.6 kmh N 28.8 mph46.3 kmh 30.47 in1031.8 mb - 0.01 in0.3 mm 0.01 in0.3 mm
09:10 AM 36.6°F2.6°C 35.1°F1.7°C 94% 18.4 mph N29.6 kmh N 24.2 mph38.9 kmh 30.47 in1031.8 mb - 0.00 in0.0 mm 0.00 in0.0 mm
09:00 AM 35.7°F2.1°C 34.1°F1.2°C 94% 19.6 mph N31.5 kmh N 24.2 mph38.9 kmh 30.46 in1031.5 mb - 0.00 in0.0 mm 0.00 in0.0 mm
08:50 AM 35.5°F1.9°C 34.2°F1.2°C 95% 15.0 mph N24.1 kmh N 21.9 mph35.2 kmh 30.46 in1031.5 mb - 0.00 in0.0 mm 0.00 in0.0 mm
08:40 AM 35.2°F1.8°C 33.9°F1.1°C 95% 18.4 mph N29.6 kmh N 19.6 mph31.5 kmh 30.46 in1031.5 mb - 0.00 in0.0 mm 0.00 in0.0 mm
08:30 AM 34.8°F1.6°C 33.2°F0.7°C 94% 17.3 mph N27.8 kmh N 20.7 mph33.3 kmh 30.45 in1031.2 mb - 0.00 in0.0 mm 0.00 in0.0 mm
08:20 AM 34.4°F1.3°C 32.9°F0.5°C 94% 16.1 mph N25.9 kmh N 19.6 mph31.5 kmh 30.45 in1031.2 mb - 0.00 in0.0 mm 0.00 in0.0 mm
08:10 AM 34.3°F1.3°C 32.7°F0.4°C 94% 17.3 mph N27.8 kmh N 19.6 mph31.5 kmh 30.45 in1031.2 mb - 0.00 in0.0 mm 0.00 in0.0 mm
08:00 AM 34.1°F1.2°C 32.5°F0.3°C 94% 15.0 mph N24.1 kmh N 19.6 mph31.5 kmh 30.45 in1031.2 mb - 0.00 in0.0 mm 0.00 in0.0 mm
07:50 AM 34.2°F1.2°C 32.6°F0.3°C 94% 18.4 mph N29.6 kmh N 24.2 mph38.9 kmh 30.45 in1031.2 mb - 0.00 in0.0 mm 0.00 in0.0 mm
07:40 AM 34.2°F1.2°C 32.6°F0.3°C 94% 13.8 mph N22.2 kmh N 21.9 mph35.2 kmh 30.44 in1030.8 mb - 0.00 in0.0 mm 0.00 in0.0 mm
07:30 AM 34.3°F1.3°C 32.7°F0.4°C 94% 20.7 mph N33.3 kmh N 25.3 mph40.7 kmh 30.44 in1030.8 mb - 0.00 in0.0 mm 0.00 in0.0 mm
07:20 AM 34.2°F1.2°C 32.6°F0.3°C 94% 24.2 mph N38.9 kmh N 27.6 mph44.4 kmh 30.43 in1030.5 mb - 0.00 in0.0 mm 0.00 in0.0 mm
07:10 AM 34.3°F1.3°C 32.8°F0.4°C 94% 19.6 mph N31.5 kmh N 27.6 mph44.4 kmh 30.43 in1030.5 mb - 0.00 in0.0 mm 0.00 in0.0 mm
07:00 AM 34.2°F1.2°C 32.7°F0.4°C 94% 20.7 mph 33.3 kmh 31.1 mph50.1 kmh 30.43 in1030.5 mb - 0.00 in0.0 mm 0.00 in0.0 mm
06:50 AM 33.8°F1.0°C 32.3°F0.2°C 94% 20.7 mph N33.3 kmh N 27.6 mph44.4 kmh 30.43 in1030.5 mb - 0.00 in0.0 mm 0.00 in0.0 mm
06:40 AM 33.6°F0.9°C 32.0°F0.0°C 94% 20.7 mph N33.3 kmh N 24.2 mph38.9 kmh 30.43 in1030.5 mb - 0.00 in0.0 mm 0.00 in0.0 mm
06:30 AM 33.6°F0.9°C 32.0°F0.0°C 94% 21.9 mph N35.2 kmh N 25.3 mph40.7 kmh 30.43 in1030.5 mb - 0.00 in0.0 mm 0.00 in0.0 mm
06:20 AM 33.3°F0.7°C 31.8°F-0.1°C 94% 20.7 mph N33.3 kmh N 28.8 mph46.3 kmh 30.43 in1030.5 mb - 0.00 in0.0 mm 0.00 in0.0 mm
06:10 AM 33.4°F0.8°C 31.6°F-0.2°C 93% 23.0 mph N37.0 kmh N 26.5 mph42.6 kmh 30.43 in1030.5 mb - 0.00 in0.0 mm 0.00 in0.0 mm
06:00 AM 33.4°F0.8°C 31.6°F-0.2°C 93% 20.7 mph N33.3 kmh N 23.0 mph37.0 kmh 30.43 in1030.5 mb - 0.00 in0.0 mm 0.00 in0.0 mm
05:50 AM 33.6°F0.9°C 32.0°F0.0°C 94% 23.0 mph N37.0 kmh N 27.6 mph44.4 kmh 30.43 in1030.5 mb - 0.00 in0.0 mm 0.00 in0.0 mm
05:40 AM 33.6°F0.9°C 31.8°F-0.1°C 93% 21.9 mph N35.2 kmh N 28.8 mph46.3 kmh 30.43 in1030.5 mb - 0.00 in0.0 mm 0.00 in0.0 mm
05:30 AM 33.7°F0.9°C 32.1°F0.1°C 94% 21.9 mph N35.2 kmh N 27.6 mph44.4 kmh 30.43 in1030.5 mb - 0.00 in0.0 mm 0.00 in0.0 mm
05:20 AM 33.5°F0.8°C 31.7°F-0.2°C 93% 20.7 mph N33.3 kmh N 26.5 mph42.6 kmh 30.43 in1030.5 mb - 0.00 in0.0 mm 0.00 in0.0 mm
05:10 AM 33.5°F0.8°C 32.0°F0.0°C 94% 20.7 mph N33.3 kmh N 27.6 mph44.4 kmh 30.42 in1030.1 mb - 0.00 in0.0 mm 0.00 in0.0 mm
05:00 AM 33.5°F0.8°C 31.7°F-0.2°C 93% 23.0 mph 37.0 kmh 28.8 mph46.3 kmh 30.42 in1030.1 mb - 0.00 in0.0 mm 0.00 in0.0 mm
04:50 AM 33.5°F0.8°C 31.5°F-0.3°C 92% 23.0 mph N37.0 kmh N 29.9 mph48.1 kmh 30.43 in1030.5 mb - 0.00 in0.0 mm 0.00 in0.0 mm
04:40 AM 33.6°F0.9°C 31.8°F-0.1°C 93% 23.0 mph N37.0 kmh N 33.4 mph53.8 kmh 30.42 in1030.1 mb - 0.00 in0.0 mm 0.00 in0.0 mm
04:30 AM 33.5°F0.8°C 31.7°F-0.2°C 93% 21.9 mph N35.2 kmh N 28.8 mph46.3 kmh 30.42 in1030.1 mb - 0.00 in0.0 mm 0.00 in0.0 mm
04:20 AM 33.7°F0.9°C 32.2°F0.1°C 94% 19.6 mph N31.5 kmh N 24.2 mph38.9 kmh 30.42 in1030.1 mb - 0.00 in0.0 mm 0.00 in0.0 mm
04:10 AM 33.7°F0.9°C 32.1°F0.1°C 94% 17.3 mph 27.8 kmh 21.9 mph35.2 kmh 30.42 in1030.1 mb - 0.00 in0.0 mm 0.00 in0.0 mm
04:00 AM 33.5°F0.8°C 32.0°F0.0°C 94% 19.6 mph N31.5 kmh N 26.5 mph42.6 kmh 30.42 in1030.1 mb - 0.00 in0.0 mm 0.00 in0.0 mm
03:50 AM 33.6°F0.9°C 32.0°F0.0°C 94% 29.9 mph N48.1 kmh N 36.8 mph59.2 kmh 30.42 in1030.1 mb - 0.00 in0.0 mm 0.00 in0.0 mm
03:40 AM 33.8°F1.0°C 32.3°F0.2°C 94% 18.4 mph N29.6 kmh N 26.5 mph42.6 kmh 30.42 in1030.1 mb - 0.00 in0.0 mm 0.00 in0.0 mm
03:30 AM 33.8°F1.0°C 32.3°F0.2°C 94% 23.0 mph N37.0 kmh N 28.8 mph46.3 kmh 30.42 in1030.1 mb - 0.00 in0.0 mm 0.00 in0.0 mm
03:20 AM 33.7°F0.9°C 32.2°F0.1°C 94% 20.7 mph N33.3 kmh N 31.1 mph50.1 kmh 30.42 in1030.1 mb - 0.00 in0.0 mm 0.00 in0.0 mm
03:10 AM 33.5°F0.8°C 32.0°F0.0°C 94% 21.9 mph N35.2 kmh N 29.9 mph48.1 kmh 30.42 in1030.1 mb - 0.00 in0.0 mm 0.00 in0.0 mm
03:00 AM 33.9°F1.1°C 32.3°F0.2°C 94% 24.2 mph N38.9 kmh N 33.4 mph53.8 kmh 30.42 in1030.1 mb - 0.00 in0.0 mm 0.00 in0.0 mm
02:50 AM 33.8°F1.0°C 32.3°F0.2°C 94% 24.2 mph N38.9 kmh N 32.2 mph51.8 kmh 30.41 in1029.8 mb - 0.00 in0.0 mm 0.00 in0.0 mm
02:40 AM 33.8°F1.0°C 32.3°F0.2°C 94% 24.2 mph N38.9 kmh N 31.1 mph50.1 kmh 30.41 in1029.8 mb - 0.00 in0.0 mm 0.00 in0.0 mm
02:30 AM 33.7°F0.9°C 32.2°F0.1°C 94% 23.0 mph N37.0 kmh N 26.5 mph42.6 kmh 30.42 in1030.1 mb - 0.00 in0.0 mm 0.00 in0.0 mm
02:20 AM 33.6°F0.9°C 32.0°F0.0°C 94% 25.3 mph N40.7 kmh N 28.8 mph46.3 kmh 30.42 in1030.1 mb - 0.00 in0.0 mm 0.00 in0.0 mm
02:10 AM 33.6°F0.9°C 31.8°F-0.1°C 93% 23.0 mph N37.0 kmh N 32.2 mph51.8 kmh 30.42 in1030.1 mb - 0.00 in0.0 mm 0.00 in0.0 mm
02:00 AM 33.3°F0.7°C 31.5°F-0.3°C 93% 21.9 mph N35.2 kmh N 26.5 mph42.6 kmh 30.42 in1030.1 mb - 0.00 in0.0 mm 0.00 in0.0 mm
01:50 AM 33.2°F0.7°C 31.1°F-0.5°C 92% 21.9 mph N35.2 kmh N 26.5 mph42.6 kmh 30.41 in1029.8 mb - 0.00 in0.0 mm 0.00 in0.0 mm
01:40 AM 33.2°F0.7°C 31.1°F-0.5°C 92% 21.9 mph N35.2 kmh N 26.5 mph42.6 kmh 30.41 in1029.8 mb - 0.00 in0.0 mm 0.00 in0.0 mm
01:30 AM 33.1°F0.6°C 31.0°F-0.6°C 92% 21.9 mph N35.2 kmh N 26.5 mph42.6 kmh 30.41 in1029.8 mb - 0.00 in0.0 mm 0.00 in0.0 mm
01:20 AM 33.2°F0.7°C 31.1°F-0.5°C 92% 20.7 mph N33.3 kmh N 28.8 mph46.3 kmh 30.41 in1029.8 mb - 0.00 in0.0 mm 0.00 in0.0 mm
01:10 AM 33.3°F0.7°C 31.2°F-0.4°C 92% 20.7 mph N33.3 kmh N 28.8 mph46.3 kmh 30.41 in1029.8 mb - 0.00 in0.0 mm 0.00 in0.0 mm
01:00 AM 33.3°F0.7°C 31.2°F-0.4°C 92% 23.0 mph N37.0 kmh N 27.6 mph44.4 kmh 30.41 in1029.8 mb - 0.00 in0.0 mm 0.00 in0.0 mm
12:50 AM 33.2°F0.7°C 31.1°F-0.5°C 92% 20.7 mph N33.3 kmh N 23.0 mph37.0 kmh 30.41 in1029.8 mb - 0.00 in0.0 mm 0.00 in0.0 mm
12:40 AM 32.9°F0.5°C 30.8°F-0.7°C 92% 21.9 mph 35.2 kmh 28.8 mph46.3 kmh 30.41 in1029.8 mb - 0.00 in0.0 mm 0.00 in0.0 mm
12:30 AM 32.8°F0.4°C 30.7°F-0.7°C 92% 18.4 mph N29.6 kmh N 26.5 mph42.6 kmh 30.41 in1029.8 mb - 0.00 in0.0 mm 0.00 in0.0 mm
12:20 AM 33.0°F0.6°C 30.7°F-0.7°C 91% 20.7 mph N33.3 kmh N 25.3 mph40.7 kmh 30.41 in1029.8 mb - 0.00 in0.0 mm 0.00 in0.0 mm
12:10 AM 33.1°F0.6°C 30.8°F-0.7°C 91% 20.7 mph N33.3 kmh N 25.3 mph40.7 kmh 30.41 in1029.8 mb - 0.00 in0.0 mm 0.00 in0.0 mm
12:00 AM 33.3°F0.7°C 31.2°F-0.4°C 92% 21.9 mph N35.2 kmh N 27.6 mph44.4 kmh 30.41 in1029.8 mb - 0.00 in0.0 mm 0.00 in0.0 mm